sensor_id;sensor_type;location;lat;lon;timestamp;pressure;altitude;pressure_sealevel;temperature;humidity
41690;BME280;27372;42.658;23.256;2023-03-23T00:01:20;93761.00;;;6.96;96.84
41690;BME280;27372;42.658;23.256;2023-03-23T00:03:48;93754.97;;;6.38;97.93
41690;BME280;27372;42.658;23.256;2023-03-23T00:06:15;93738.69;;;6.43;98.41
41690;BME280;27372;42.658;23.256;2023-03-23T00:08:50;93751.09;;;6.47;99.16
41690;BME280;27372;42.658;23.256;2023-03-23T00:11:26;93739.91;;;6.72;97.70
41690;BME280;27372;42.658;23.256;2023-03-23T00:13:55;93740.03;;;6.77;95.34
41690;BME280;27372;42.658;23.256;2023-03-23T00:16:31;93738.91;;;6.41;95.34
41690;BME280;27372;42.658;23.256;2023-03-23T00:19:06;93735.31;;;6.35;95.93
41690;BME280;27372;42.658;23.256;2023-03-23T00:21:35;93736.84;;;6.50;94.59
41690;BME280;27372;42.658;23.256;2023-03-23T00:24:08;93747.94;;;6.71;94.71
41690;BME280;27372;42.658;23.256;2023-03-23T00:26:36;93746.66;;;6.80;93.08
41690;BME280;27372;42.658;23.256;2023-03-23T00:29:06;93755.50;;;6.79;91.51
41690;BME280;27372;42.658;23.256;2023-03-23T00:31:32;93751.66;;;6.56;92.72
41690;BME280;27372;42.658;23.256;2023-03-23T00:34:00;93752.31;;;6.45;93.72
41690;BME280;27372;42.658;23.256;2023-03-23T00:36:31;93748.03;;;6.57;93.94
41690;BME280;27372;42.658;23.256;2023-03-23T00:38:58;93764.50;;;6.83;92.95
41690;BME280;27372;42.658;23.256;2023-03-23T00:41:27;93763.06;;;6.87;92.49
41690;BME280;27372;42.658;23.256;2023-03-23T00:43:57;93766.09;;;6.84;92.70
41690;BME280;27372;42.658;23.256;2023-03-23T00:46:26;93766.78;;;6.73;92.73
41690;BME280;27372;42.658;23.256;2023-03-23T00:48:53;93768.84;;;6.96;91.87
41690;BME280;27372;42.658;23.256;2023-03-23T00:51:19;93762.09;;;6.56;92.47
41690;BME280;27372;42.658;23.256;2023-03-23T00:53:46;93751.66;;;6.24;94.59
41690;BME280;27372;42.658;23.256;2023-03-23T00:56:12;93764.16;;;6.15;95.12
41690;BME280;27372;42.658;23.256;2023-03-23T00:58:38;93768.78;;;6.06;95.20
41690;BME280;27372;42.658;23.256;2023-03-23T01:01:04;93770.19;;;6.09;95.92
41690;BME280;27372;42.658;23.256;2023-03-23T01:03:30;93768.97;;;6.12;95.09
41690;BME280;27372;42.658;23.256;2023-03-23T01:06:07;93767.66;;;5.89;96.70
41690;BME280;27372;42.658;23.256;2023-03-23T01:08:34;93763.63;;;5.86;97.39
41690;BME280;27372;42.658;23.256;2023-03-23T01:11:03;93768.88;;;5.80;98.28
41690;BME280;27372;42.658;23.256;2023-03-23T01:13:29;93767.84;;;5.81;98.85
41690;BME280;27372;42.658;23.256;2023-03-23T01:15:54;93776.44;;;5.95;98.86
41690;BME280;27372;42.658;23.256;2023-03-23T01:18:20;93776.78;;;6.12;97.87
41690;BME280;27372;42.658;23.256;2023-03-23T01:20:46;93776.06;;;6.36;96.19
41690;BME280;27372;42.658;23.256;2023-03-23T01:23:11;93777.75;;;6.56;94.87
41690;BME280;27372;42.658;23.256;2023-03-23T01:25:37;93763.81;;;6.37;95.18
41690;BME280;27372;42.658;23.256;2023-03-23T01:28:02;93766.19;;;6.45;95.83
41690;BME280;27372;42.658;23.256;2023-03-23T01:30:28;93774.72;;;6.59;95.29
41690;BME280;27372;42.658;23.256;2023-03-23T01:32:54;93766.78;;;6.73;93.53
41690;BME280;27372;42.658;23.256;2023-03-23T01:35:22;93768.66;;;6.65;93.32
41690;BME280;27372;42.658;23.256;2023-03-23T01:37:47;93763.97;;;6.74;92.91
41690;BME280;27372;42.658;23.256;2023-03-23T01:40:14;93773.97;;;6.77;92.76
41690;BME280;27372;42.658;23.256;2023-03-23T01:42:41;93772.59;;;6.75;92.27
41690;BME280;27372;42.658;23.256;2023-03-23T01:45:34;93765.25;;;6.90;91.71
41690;BME280;27372;42.658;23.256;2023-03-23T01:48:08;93765.72;;;6.80;92.19
41690;BME280;27372;42.658;23.256;2023-03-23T01:50:46;93761.47;;;6.86;91.97
41690;BME280;27372;42.658;23.256;2023-03-23T01:53:17;93761.22;;;6.62;92.61
41690;BME280;27372;42.658;23.256;2023-03-23T01:55:44;93757.47;;;6.58;93.24
41690;BME280;27372;42.658;23.256;2023-03-23T01:58:13;93744.72;;;6.43;94.27
41690;BME280;27372;42.658;23.256;2023-03-23T02:00:40;93751.13;;;6.09;96.30
41690;BME280;27372;42.658;23.256;2023-03-23T02:03:08;93755.84;;;6.25;96.58
41690;BME280;27372;42.658;23.256;2023-03-23T02:05:38;93746.81;;;6.28;97.03
41690;BME280;27372;42.658;23.256;2023-03-23T02:08:07;93746.94;;;6.40;97.39
41690;BME280;27372;42.658;23.256;2023-03-23T02:10:36;93753.50;;;6.49;97.48
41690;BME280;27372;42.658;23.256;2023-03-23T02:13:04;93749.72;;;6.45;98.18
41690;BME280;27372;42.658;23.256;2023-03-23T02:35:20;93750.56;;;6.00;100.00
41690;BME280;27372;42.658;23.256;2023-03-23T02:37:58;93746.94;;;6.08;100.00
41690;BME280;27372;42.658;23.256;2023-03-23T02:40:29;93744.78;;;6.30;100.00
41690;BME280;27372;42.658;23.256;2023-03-23T02:42:57;93753.00;;;6.33;100.00
41690;BME280;27372;42.658;23.256;2023-03-23T02:45:26;93742.78;;;6.32;100.00
41690;BME280;27372;42.658;23.256;2023-03-23T02:47:52;93747.47;;;6.48;100.00
41690;BME280;27372;42.658;23.256;2023-03-23T02:50:21;93750.22;;;6.60;99.96
41690;BME280;27372;42.658;23.256;2023-03-23T02:52:48;93758.44;;;6.64;98.57
41690;BME280;27372;42.658;23.256;2023-03-23T02:55:16;93757.78;;;6.68;97.90
41690;BME280;27372;42.658;23.256;2023-03-23T02:57:43;93761.19;;;6.69;96.39
41690;BME280;27372;42.658;23.256;2023-03-23T03:00:15;93762.38;;;6.73;95.51
41690;BME280;27372;42.658;23.256;2023-03-23T03:02:47;93763.16;;;6.74;96.18
41690;BME280;27372;42.658;23.256;2023-03-23T03:13:13;93778.22;;;6.72;95.04
41690;BME280;27372;42.658;23.256;2023-03-23T03:15:49;93787.63;;;6.79;95.24
41690;BME280;27372;42.658;23.256;2023-03-23T03:18:24;93781.47;;;6.67;94.98
41690;BME280;27372;42.658;23.256;2023-03-23T03:20:55;93794.41;;;6.87;93.63
41690;BME280;27372;42.658;23.256;2023-03-23T03:23:25;93795.97;;;6.95;91.48
41690;BME280;27372;42.658;23.256;2023-03-23T03:25:52;93794.34;;;6.68;92.38
41690;BME280;27372;42.658;23.256;2023-03-23T03:28:20;93802.25;;;6.55;93.02
41690;BME280;27372;42.658;23.256;2023-03-23T03:30:57;93799.34;;;6.31;94.28
41690;BME280;27372;42.658;23.256;2023-03-23T03:33:25;93797.50;;;6.00;95.52
41690;BME280;27372;42.658;23.256;2023-03-23T03:35:57;93806.50;;;5.97;96.49
41690;BME280;27372;42.658;23.256;2023-03-23T03:38:23;93800.03;;;6.20;95.86
41690;BME280;27372;42.658;23.256;2023-03-23T03:40:49;93791.59;;;6.25;95.10
41690;BME280;27372;42.658;23.256;2023-03-23T03:43:15;93796.84;;;6.11;95.60
41690;BME280;27372;42.658;23.256;2023-03-23T03:45:40;93788.69;;;6.01;96.52
41690;BME280;27372;42.658;23.256;2023-03-23T03:48:10;93796.22;;;6.16;95.26
41690;BME280;27372;42.658;23.256;2023-03-23T03:50:35;93791.59;;;6.18;95.51
41690;BME280;27372;42.658;23.256;2023-03-23T03:53:01;93789.94;;;6.30;95.43
41690;BME280;27372;42.658;23.256;2023-03-23T03:55:27;93795.34;;;6.29;94.76
41690;BME280;27372;42.658;23.256;2023-03-23T03:57:56;93788.16;;;5.65;97.48
41690;BME280;27372;42.658;23.256;2023-03-23T04:00:22;93790.47;;;5.28;98.54
41690;BME280;27372;42.658;23.256;2023-03-23T04:02:49;93783.19;;;5.50;97.81
41690;BME280;27372;42.658;23.256;2023-03-23T04:05:19;93781.06;;;5.07;99.70
41690;BME280;27372;42.658;23.256;2023-03-23T04:07:45;93778.84;;;5.04;100.00
41690;BME280;27372;42.658;23.256;2023-03-23T04:10:14;93784.25;;;5.02;100.00
41690;BME280;27372;42.658;23.256;2023-03-23T04:12:40;93773.03;;;5.15;100.00
41690;BME280;27372;42.658;23.256;2023-03-23T04:15:06;93790.63;;;5.33;100.00
41690;BME280;27372;42.658;23.256;2023-03-23T04:17:33;93769.78;;;5.40;100.00
41690;BME280;27372;42.658;23.256;2023-03-23T04:19:59;93770.34;;;5.55;100.00
41690;BME280;27372;42.658;23.256;2023-03-23T04:22:27;93775.38;;;5.57;100.00
41690;BME280;27372;42.658;23.256;2023-03-23T04:24:59;93780.59;;;5.37;100.00
41690;BME280;27372;42.658;23.256;2023-03-23T04:27:26;93776.84;;;5.26;100.00
41690;BME280;27372;42.658;23.256;2023-03-23T04:29:54;93791.59;;;5.59;100.00
41690;BME280;27372;42.658;23.256;2023-03-23T04:32:20;93778.44;;;5.13;100.00
41690;BME280;27372;42.658;23.256;2023-03-23T04:34:46;93791.88;;;4.90;100.00
41690;BME280;27372;42.658;23.256;2023-03-23T04:37:11;93789.06;;;4.92;100.00
41690;BME280;27372;42.658;23.256;2023-03-23T04:39:38;93785.47;;;4.93;100.00
41690;BME280;27372;42.658;23.256;2023-03-23T04:42:05;93787.84;;;5.21;100.00
41690;BME280;27372;42.658;23.256;2023-03-23T04:44:30;93788.69;;;5.02;100.00
41690;BME280;27372;42.658;23.256;2023-03-23T04:47:00;93798.22;;;5.41;100.00
41690;BME280;27372;42.658;23.256;2023-03-23T04:49:26;93793.44;;;5.38;99.93
41690;BME280;27372;42.658;23.256;2023-03-23T04:51:52;93793.22;;;5.47;98.07
41690;BME280;27372;42.658;23.256;2023-03-23T04:54:17;93795.41;;;5.56;97.37
41690;BME280;27372;42.658;23.256;2023-03-23T04:56:43;93798.38;;;5.60;97.02
41690;BME280;27372;42.658;23.256;2023-03-23T04:59:08;93798.06;;;5.36;98.25
41690;BME280;27372;42.658;23.256;2023-03-23T05:01:34;93803.84;;;5.45;97.56
41690;BME280;27372;42.658;23.256;2023-03-23T05:04:03;93800.22;;;5.39;98.06
41690;BME280;27372;42.658;23.256;2023-03-23T05:06:28;93809.66;;;5.47;98.80
41690;BME280;27372;42.658;23.256;2023-03-23T05:08:53;93808.25;;;5.51;98.99
41690;BME280;27372;42.658;23.256;2023-03-23T05:11:20;93819.06;;;5.55;98.84
41690;BME280;27372;42.658;23.256;2023-03-23T05:13:46;93808.63;;;5.68;98.26
41690;BME280;27372;42.658;23.256;2023-03-23T05:16:11;93811.09;;;5.23;100.00
41690;BME280;27372;42.658;23.256;2023-03-23T05:18:37;93828.72;;;5.14;100.00
41690;BME280;27372;42.658;23.256;2023-03-23T05:21:05;93820.50;;;5.31;100.00
41690;BME280;27372;42.658;23.256;2023-03-23T05:23:30;93815.81;;;5.66;100.00
41690;BME280;27372;42.658;23.256;2023-03-23T05:25:57;93812.22;;;5.74;100.00
41690;BME280;27372;42.658;23.256;2023-03-23T05:28:27;93830.09;;;6.29;100.00
41690;BME280;27372;42.658;23.256;2023-03-23T05:30:53;93827.75;;;7.36;100.00
41690;BME280;27372;42.658;23.256;2023-03-23T05:33:20;93831.75;;;7.38;100.00
41690;BME280;27372;42.658;23.256;2023-03-23T05:35:47;93821.06;;;7.65;100.00
41690;BME280;27372;42.658;23.256;2023-03-23T05:38:13;93840.50;;;7.51;100.00
41690;BME280;27372;42.658;23.256;2023-03-23T05:40:40;93839.78;;;6.86;96.56
41690;BME280;27372;42.658;23.256;2023-03-23T05:43:07;93848.97;;;6.63;98.73
41690;BME280;27372;42.658;23.256;2023-03-23T05:45:33;93841.44;;;6.80;97.55
41690;BME280;27372;42.658;23.256;2023-03-23T05:47:59;93851.59;;;7.21;96.55
41690;BME280;27372;42.658;23.256;2023-03-23T05:50:25;93843.16;;;7.19;96.31
41690;BME280;27372;42.658;23.256;2023-03-23T05:52:50;93864.56;;;7.34;94.84
41690;BME280;27372;42.658;23.256;2023-03-23T05:55:16;93863.22;;;7.50;93.71
41690;BME280;27372;42.658;23.256;2023-03-23T05:57:41;93853.16;;;6.64;96.07
41690;BME280;27372;42.658;23.256;2023-03-23T06:00:07;93860.22;;;6.64;97.77
41690;BME280;27372;42.658;23.256;2023-03-23T06:02:39;93849.16;;;6.68;98.82
41690;BME280;27372;42.658;23.256;2023-03-23T06:05:09;93873.13;;;7.16;97.02
41690;BME280;27372;42.658;23.256;2023-03-23T06:07:35;93868.56;;;7.37;96.15
41690;BME280;27372;42.658;23.256;2023-03-23T06:10:02;93865.19;;;7.55;94.61
41690;BME280;27372;42.658;23.256;2023-03-23T06:12:27;93863.22;;;7.25;96.01
41690;BME280;27372;42.658;23.256;2023-03-23T06:14:53;93858.84;;;7.19;97.15
41690;BME280;27372;42.658;23.256;2023-03-23T06:17:18;93856.22;;;7.44;96.84
41690;BME280;27372;42.658;23.256;2023-03-23T06:19:44;93866.09;;;7.67;96.16
41690;BME280;27372;42.658;23.256;2023-03-23T06:22:12;93863.91;;;7.39;96.50
41690;BME280;27372;42.658;23.256;2023-03-23T06:24:37;93851.75;;;7.51;97.38
41690;BME280;27372;42.658;23.256;2023-03-23T06:27:03;93860.69;;;7.62;95.53
41690;BME280;27372;42.658;23.256;2023-03-23T06:29:28;93861.31;;;7.83;94.99
41690;BME280;27372;42.658;23.256;2023-03-23T06:31:56;93866.03;;;8.11;94.55
41690;BME280;27372;42.658;23.256;2023-03-23T06:34:22;93856.66;;;8.22;93.56
41690;BME280;27372;42.658;23.256;2023-03-23T06:36:48;93856.44;;;8.42;90.66
41690;BME280;27372;42.658;23.256;2023-03-23T06:39:14;93857.94;;;8.50;90.22
41690;BME280;27372;42.658;23.256;2023-03-23T06:41:39;93856.81;;;8.27;91.31
41690;BME280;27372;42.658;23.256;2023-03-23T06:44:05;93870.09;;;8.44;91.96
41690;BME280;27372;42.658;23.256;2023-03-23T06:46:31;93866.09;;;8.60;92.40
41690;BME280;27372;42.658;23.256;2023-03-23T06:48:57;93876.53;;;8.79;91.97
41690;BME280;27372;42.658;23.256;2023-03-23T06:51:23;93872.34;;;8.90;90.49
41690;BME280;27372;42.658;23.256;2023-03-23T06:53:48;93872.91;;;8.80;90.88
41690;BME280;27372;42.658;23.256;2023-03-23T06:56:13;93867.81;;;8.97;89.46
41690;BME280;27372;42.658;23.256;2023-03-23T06:58:40;93882.06;;;9.01;89.61
41690;BME280;27372;42.658;23.256;2023-03-23T07:01:07;93885.13;;;8.98;89.79
41690;BME280;27372;42.658;23.256;2023-03-23T07:03:33;93880.19;;;9.32;87.36
41690;BME280;27372;42.658;23.256;2023-03-23T07:05:59;93885.78;;;9.24;87.94
41690;BME280;27372;42.658;23.256;2023-03-23T07:08:25;93881.56;;;9.35;87.09
41690;BME280;27372;42.658;23.256;2023-03-23T07:10:52;93891.03;;;9.47;86.73
41690;BME280;27372;42.658;23.256;2023-03-23T07:13:18;93889.91;;;9.55;86.66
41690;BME280;27372;42.658;23.256;2023-03-23T07:15:44;93885.97;;;9.76;85.79
41690;BME280;27372;42.658;23.256;2023-03-23T07:18:10;93890.03;;;9.72;85.88
41690;BME280;27372;42.658;23.256;2023-03-23T07:20:35;93888.91;;;9.92;84.66
41690;BME280;27372;42.658;23.256;2023-03-23T07:23:02;93879.91;;;10.00;84.20
41690;BME280;27372;42.658;23.256;2023-03-23T07:25:30;93888.56;;;10.12;82.38
41690;BME280;27372;42.658;23.256;2023-03-23T07:27:56;93887.72;;;10.35;80.59
41690;BME280;27372;42.658;23.256;2023-03-23T07:30:22;93876.63;;;10.45;81.31
41690;BME280;27372;42.658;23.256;2023-03-23T07:32:47;93888.16;;;10.56;80.01
41690;BME280;27372;42.658;23.256;2023-03-23T07:35:13;93893.13;;;10.69;79.57
41690;BME280;27372;42.658;23.256;2023-03-23T07:37:38;93894.00;;;10.87;80.36
41690;BME280;27372;42.658;23.256;2023-03-23T07:40:04;93888.44;;;10.71;79.78
41690;BME280;27372;42.658;23.256;2023-03-23T07:42:44;93893.50;;;11.19;79.07
41690;BME280;27372;42.658;23.256;2023-03-23T07:45:13;93892.16;;;11.33;77.18
41690;BME280;27372;42.658;23.256;2023-03-23T07:47:44;93904.50;;;11.33;77.27
41690;BME280;27372;42.658;23.256;2023-03-23T07:50:10;93908.59;;;11.58;77.20
41690;BME280;27372;42.658;23.256;2023-03-23T07:52:39;93906.91;;;11.86;75.71
41690;BME280;27372;42.658;23.256;2023-03-23T07:55:08;93912.13;;;11.98;73.91
41690;BME280;27372;42.658;23.256;2023-03-23T07:57:34;93913.31;;;12.07;74.69
41690;BME280;27372;42.658;23.256;2023-03-23T08:00:00;93908.09;;;12.12;72.13
41690;BME280;27372;42.658;23.256;2023-03-23T08:02:26;93914.16;;;12.30;72.60
41690;BME280;27372;42.658;23.256;2023-03-23T08:05:04;93918.16;;;12.37;72.86
41690;BME280;27372;42.658;23.256;2023-03-23T08:07:30;93909.53;;;12.42;71.89
41690;BME280;27372;42.658;23.256;2023-03-23T08:09:55;93913.97;;;12.58;71.19
41690;BME280;27372;42.658;23.256;2023-03-23T08:12:23;93905.63;;;12.89;69.03
41690;BME280;27372;42.658;23.256;2023-03-23T08:14:52;93915.25;;;13.28;66.55
41690;BME280;27372;42.658;23.256;2023-03-23T08:17:19;93916.09;;;13.33;67.47
41690;BME280;27372;42.658;23.256;2023-03-23T08:19:45;93910.44;;;13.25;67.33
41690;BME280;27372;42.658;23.256;2023-03-23T08:22:17;93918.69;;;13.56;66.93
41690;BME280;27372;42.658;23.256;2023-03-23T08:24:43;93907.78;;;13.79;65.90
41690;BME280;27372;42.658;23.256;2023-03-23T08:27:09;93920.09;;;14.01;64.26
41690;BME280;27372;42.658;23.256;2023-03-23T08:29:35;93902.16;;;14.03;63.01
41690;BME280;27372;42.658;23.256;2023-03-23T08:32:00;93908.56;;;14.12;61.86
41690;BME280;27372;42.658;23.256;2023-03-23T08:34:28;93910.78;;;14.36;60.65
41690;BME280;27372;42.658;23.256;2023-03-23T08:36:54;93908.63;;;14.76;59.92
41690;BME280;27372;42.658;23.256;2023-03-23T08:39:20;93909.16;;;14.83;57.90
41690;BME280;27372;42.658;23.256;2023-03-23T08:41:48;93912.69;;;15.10;53.92
41690;BME280;27372;42.658;23.256;2023-03-23T08:44:13;93908.28;;;15.67;51.23
41690;BME280;27372;42.658;23.256;2023-03-23T08:46:39;93907.25;;;15.89;50.02
41690;BME280;27372;42.658;23.256;2023-03-23T08:49:05;93904.31;;;16.01;50.23
41690;BME280;27372;42.658;23.256;2023-03-23T08:51:31;93910.13;;;15.51;48.20
41690;BME280;27372;42.658;23.256;2023-03-23T08:53:57;93908.00;;;15.63;46.41
41690;BME280;27372;42.658;23.256;2023-03-23T08:56:23;93905.38;;;15.53;48.68
41690;BME280;27372;42.658;23.256;2023-03-23T08:58:49;93907.22;;;15.58;47.09
41690;BME280;27372;42.658;23.256;2023-03-23T09:01:15;93905.88;;;15.81;47.42
41690;BME280;27372;42.658;23.256;2023-03-23T09:03:40;93906.41;;;16.09;47.23
41690;BME280;27372;42.658;23.256;2023-03-23T09:06:07;93900.88;;;15.79;47.43
41690;BME280;27372;42.658;23.256;2023-03-23T09:08:34;93917.81;;;16.09;46.65
41690;BME280;27372;42.658;23.256;2023-03-23T09:11:06;93909.06;;;16.19;46.02
41690;BME280;27372;42.658;23.256;2023-03-23T09:13:38;93900.06;;;15.99;45.82
41690;BME280;27372;42.658;23.256;2023-03-23T09:16:05;93902.81;;;16.70;44.56
41690;BME280;27372;42.658;23.256;2023-03-23T09:18:32;93889.00;;;16.79;44.54
41690;BME280;27372;42.658;23.256;2023-03-23T09:21:00;93892.63;;;16.27;43.50
41690;BME280;27372;42.658;23.256;2023-03-23T09:23:27;93893.16;;;16.09;44.98
41690;BME280;27372;42.658;23.256;2023-03-23T09:25:53;93889.34;;;16.61;43.06
41690;BME280;27372;42.658;23.256;2023-03-23T09:28:19;93892.81;;;16.46;44.58
41690;BME280;27372;42.658;23.256;2023-03-23T09:30:45;93884.88;;;17.12;43.43
41690;BME280;27372;42.658;23.256;2023-03-23T09:33:11;93879.16;;;17.74;43.30
41690;BME280;27372;42.658;23.256;2023-03-23T09:35:37;93887.34;;;18.37;41.17
41690;BME280;27372;42.658;23.256;2023-03-23T09:38:05;93868.78;;;19.23;38.80
41690;BME280;27372;42.658;23.256;2023-03-23T09:40:37;93880.00;;;19.39;38.29
41690;BME280;27372;42.658;23.256;2023-03-23T09:46:30;93887.31;;;17.48;40.39
41690;BME280;27372;42.658;23.256;2023-03-23T09:49:09;93870.31;;;17.84;41.48
41690;BME280;27372;42.658;23.256;2023-03-23T09:51:49;93880.59;;;18.50;40.90
41690;BME280;27372;42.658;23.256;2023-03-23T09:56:45;93872.69;;;19.31;38.36
41690;BME280;27372;42.658;23.256;2023-03-23T10:01:51;93875.03;;;17.92;40.33
41690;BME280;27372;42.658;23.256;2023-03-23T10:06:56;93874.84;;;19.29;37.38
41690;BME280;27372;42.658;23.256;2023-03-23T10:09:22;93869.56;;;19.43;37.48
41690;BME280;27372;42.658;23.256;2023-03-23T10:17:21;93865.31;;;20.69;35.84
41690;BME280;27372;42.658;23.256;2023-03-23T10:19:52;93869.16;;;20.77;35.28
41690;BME280;27372;42.658;23.256;2023-03-23T10:22:32;93865.25;;;21.62;33.60
41690;BME280;27372;42.658;23.256;2023-03-23T10:27:41;93864.88;;;21.77;33.07
41690;BME280;27372;42.658;23.256;2023-03-23T10:30:29;93858.94;;;21.07;32.36
41690;BME280;27372;42.658;23.256;2023-03-23T10:35:47;93858.22;;;21.52;33.21
41690;BME280;27372;42.658;23.256;2023-03-23T10:38:20;93855.88;;;22.68;30.85
41690;BME280;27372;42.658;23.256;2023-03-23T10:40:50;93851.91;;;22.47;31.14
41690;BME280;27372;42.658;23.256;2023-03-23T10:43:18;93856.84;;;22.72;31.33
41690;BME280;27372;42.658;23.256;2023-03-23T10:45:45;93861.41;;;21.99;31.30
41690;BME280;27372;42.658;23.256;2023-03-23T10:48:22;93856.47;;;22.24;30.86
41690;BME280;27372;42.658;23.256;2023-03-23T10:50:52;93850.09;;;22.34;31.44
41690;BME280;27372;42.658;23.256;2023-03-23T10:53:25;93851.19;;;22.73;31.02
41690;BME280;27372;42.658;23.256;2023-03-23T10:55:56;93841.38;;;23.53;30.29
41690;BME280;27372;42.658;23.256;2023-03-23T10:58:34;93843.69;;;23.02;29.07
41690;BME280;27372;42.658;23.256;2023-03-23T11:01:10;93840.75;;;23.38;30.05
41690;BME280;27372;42.658;23.256;2023-03-23T11:03:42;93841.84;;;23.20;30.37
41690;BME280;27372;42.658;23.256;2023-03-23T11:09:13;93848.91;;;24.03;28.76
41690;BME280;27372;42.658;23.256;2023-03-23T11:11:41;93844.34;;;24.81;27.76
41690;BME280;27372;42.658;23.256;2023-03-23T11:14:31;93842.31;;;24.40;28.22
41690;BME280;27372;42.658;23.256;2023-03-23T11:17:00;93839.63;;;24.40;27.87
41690;BME280;27372;42.658;23.256;2023-03-23T11:19:30;93839.50;;;25.26;27.44
41690;BME280;27372;42.658;23.256;2023-03-23T11:22:08;93829.06;;;23.96;28.03
41690;BME280;27372;42.658;23.256;2023-03-23T11:24:45;93818.75;;;22.34;30.13
41690;BME280;27372;42.658;23.256;2023-03-23T11:27:13;93830.03;;;23.21;28.39
41690;BME280;27372;42.658;23.256;2023-03-23T11:29:53;93827.03;;;23.57;28.30
41690;BME280;27372;42.658;23.256;2023-03-23T11:32:24;93815.09;;;22.62;29.43
41690;BME280;27372;42.658;23.256;2023-03-23T12:26:33;93785.69;;;25.35;26.08
41690;BME280;27372;42.658;23.256;2023-03-23T12:32:13;93787.00;;;25.96;25.87
41690;BME280;27372;42.658;23.256;2023-03-23T12:40:25;93772.44;;;25.51;25.44
41690;BME280;27372;42.658;23.256;2023-03-23T12:46:07;93771.88;;;26.25;25.02
41690;BME280;27372;42.658;23.256;2023-03-23T12:48:48;93772.41;;;26.18;25.08
41690;BME280;27372;42.658;23.256;2023-03-23T12:51:24;93758.84;;;26.51;24.92
41690;BME280;27372;42.658;23.256;2023-03-23T12:54:18;93775.53;;;26.32;25.05
41690;BME280;27372;42.658;23.256;2023-03-23T12:56:50;93769.34;;;27.06;24.40
41690;BME280;27372;42.658;23.256;2023-03-23T12:59:41;93763.09;;;27.31;23.58
41690;BME280;27372;42.658;23.256;2023-03-23T13:05:00;93759.72;;;26.56;23.88
41690;BME280;27372;42.658;23.256;2023-03-23T13:07:32;93753.31;;;26.11;24.53
41690;BME280;27372;42.658;23.256;2023-03-23T13:10:16;93741.59;;;24.93;25.02
41690;BME280;27372;42.658;23.256;2023-03-23T13:12:45;93741.75;;;25.98;25.52
41690;BME280;27372;42.658;23.256;2023-03-23T13:15:31;93753.41;;;25.89;25.58
41690;BME280;27372;42.658;23.256;2023-03-23T13:18:15;93742.41;;;25.82;24.37
41690;BME280;27372;42.658;23.256;2023-03-23T13:24:06;93745.78;;;25.24;25.35
41690;BME280;27372;42.658;23.256;2023-03-23T13:26:38;93731.94;;;25.35;25.55
41690;BME280;27372;42.658;23.256;2023-03-23T13:29:19;93724.06;;;24.96;24.94
41690;BME280;27372;42.658;23.256;2023-03-23T13:31:47;93735.72;;;24.19;25.82
41690;BME280;27372;42.658;23.256;2023-03-23T13:34:24;93723.66;;;25.06;25.00
41690;BME280;27372;42.658;23.256;2023-03-23T13:36:57;93729.66;;;26.04;24.64
41690;BME280;27372;42.658;23.256;2023-03-23T13:39:29;93738.66;;;26.33;23.95
41690;BME280;27372;42.658;23.256;2023-03-23T13:49:56;93729.09;;;25.98;24.88
41690;BME280;27372;42.658;23.256;2023-03-23T13:55:40;93718.19;;;25.70;25.12
41690;BME280;27372;42.658;23.256;2023-03-23T13:58:11;93718.34;;;26.48;24.14
41690;BME280;27372;42.658;23.256;2023-03-23T14:00:45;93720.41;;;27.04;23.20
41690;BME280;27372;42.658;23.256;2023-03-23T14:03:45;93718.69;;;26.09;24.24
41690;BME280;27372;42.658;23.256;2023-03-23T14:06:20;93715.69;;;25.31;25.35
41690;BME280;27372;42.658;23.256;2023-03-23T14:08:53;93709.69;;;25.80;24.73
41690;BME280;27372;42.658;23.256;2023-03-23T14:11:28;93721.69;;;25.16;25.15
41690;BME280;27372;42.658;23.256;2023-03-23T14:14:13;93722.56;;;22.96;27.02
41690;BME280;27372;42.658;23.256;2023-03-23T14:16:41;93715.16;;;23.10;27.27
41690;BME280;27372;42.658;23.256;2023-03-23T14:21:52;93702.34;;;23.60;27.31
41690;BME280;27372;42.658;23.256;2023-03-23T14:24:31;93708.34;;;24.04;27.54
41690;BME280;27372;42.658;23.256;2023-03-23T14:27:12;93708.75;;;25.30;25.09
41690;BME280;27372;42.658;23.256;2023-03-23T14:29:38;93708.34;;;24.34;25.69
41690;BME280;27372;42.658;23.256;2023-03-23T14:32:06;93696.00;;;24.63;26.54
41690;BME280;27372;42.658;23.256;2023-03-23T14:34:33;93699.69;;;24.29;26.47
41690;BME280;27372;42.658;23.256;2023-03-23T14:37:00;93701.66;;;23.72;26.77
41690;BME280;27372;42.658;23.256;2023-03-23T14:39:30;93717.69;;;22.98;28.02
41690;BME280;27372;42.658;23.256;2023-03-23T14:42:02;93700.69;;;22.94;28.99
41690;BME280;27372;42.658;23.256;2023-03-23T14:44:48;93715.28;;;23.40;27.77
41690;BME280;27372;42.658;23.256;2023-03-23T14:47:24;93708.25;;;24.22;27.27
41690;BME280;27372;42.658;23.256;2023-03-23T14:49:57;93714.78;;;24.63;26.08
41690;BME280;27372;42.658;23.256;2023-03-23T14:52:32;93700.88;;;24.91;25.84
41690;BME280;27372;42.658;23.256;2023-03-23T14:55:16;93709.31;;;23.91;27.18
41690;BME280;27372;42.658;23.256;2023-03-23T14:57:42;93703.28;;;23.55;27.31
41690;BME280;27372;42.658;23.256;2023-03-23T15:00:24;93686.03;;;23.26;27.57
41690;BME280;27372;42.658;23.256;2023-03-23T15:02:55;93698.63;;;23.26;27.75
41690;BME280;27372;42.658;23.256;2023-03-23T15:07:55;93697.31;;;22.27;29.56
41690;BME280;27372;42.658;23.256;2023-03-23T15:10:24;93680.22;;;22.45;29.48
41690;BME280;27372;42.658;23.256;2023-03-23T15:12:50;93688.41;;;22.58;29.12
41690;BME280;27372;42.658;23.256;2023-03-23T15:15:32;93684.78;;;22.54;29.50
41690;BME280;27372;42.658;23.256;2023-03-23T15:18:00;93686.56;;;22.09;29.43
41690;BME280;27372;42.658;23.256;2023-03-23T15:20:29;93685.09;;;21.94;30.56
41690;BME280;27372;42.658;23.256;2023-03-23T15:22:56;93674.69;;;21.84;30.26
41690;BME280;27372;42.658;23.256;2023-03-23T15:25:30;93691.09;;;21.60;30.66